EGHQ Airport Information

Runway Information
Runway 12 Length 9006 ft width 285 ft
Elevation 306 ft Threshold ft Heading 121
Runway 30 Length 9006 ft Width 285 ft
Elevation 390 ft Threshold ft Heading 301
Airport Frequencies
Type APP Name APP Frequency 128.725 MHZ
Type ATIS Name ATIS Frequency 23.41 MHZ
Type DIR Name DIRECTOR Frequency 125.55 MHZ
Type GND Name GND Frequency 24.187 MHZ
Type MISC Name ZONE Frequency 25.897 MHZ
Type OPS Name OPS Frequency 27.53 MHZ
Type TWR Name TWR Frequency 123.4 MHZ
Airport Navaids
Type VOR-DME Name Lands End Frequency 114200 KHZ
Type NDB Name St Mawgan Frequency 357 KHZ
Type TACAN Name St Mawgan Frequency 112600 KHZ
Airport Weather Information & NOTAM
ADDS - METARS form results

(0217 UTC 20 November 2022)
Data provider http://aviationweather.gov/metar/data/
 
METAR text: EGHQ 200150Z AUTO 30016KT 9999 FEW015/// BKN045/// 11/08 Q1009 RERA
Conditions at: EGHQ (NEWQUAY , GB) observed 0150 UTC 20 November 2022
Temperature: 11.0°C (52°F)
Dewpoint: 8.0°C (46°F) [RH = 82%]
Pressure (altimeter): 29.79 inches Hg (1009.0 mb)
Winds: from the WNW (300 degrees) at 18 MPH (16 knots; 8.2 m/s)
Visibility: 6 or more miles (10+ km)
Ceiling: 4500 feet AGL
Clouds: few clouds at 1500 feet AGL
broken clouds at 4500 feet AGL
Weather: no significant weather observed at this time

METAR text: EGHQ 200120Z AUTO 29016KT 9999 BKN018/// BKN045/// 11/09 Q1009 RERA
Conditions at: EGHQ (NEWQUAY , GB) observed 0120 UTC 20 November 2022
Temperature: 11.0°C (52°F)
Dewpoint: 9.0°C (48°F) [RH = 87%]
Pressure (altimeter): 29.79 inches Hg (1009.0 mb)
Winds: from the WNW (290 degrees) at 18 MPH (16 knots; 8.2 m/s)
Visibility: 6 or more miles (10+ km)
Ceiling: 1800 feet AGL
Clouds: broken clouds at 1800 feet AGL
broken clouds at 4500 feet AGL
Weather: no significant weather observed at this time

Forecast for: EGHQ (NEWQUAY , GB)
Text: TAF EGHQ 200202Z 2003/2012 30012KT 9999 FEW020
Forecast period: 0300 to 1200 UTC 20 November 2022
Forecast type: FROM: standard forecast or significant change
Winds: from the WNW (300 degrees) at 14 MPH (12 knots; 6.2 m/s)
Visibility: 6 or more miles (10+ km)
Ceiling: at least 12,000 feet AGL
Clouds: few clouds at 2000 feet AGL
Weather: no significant weather forecast for this period
Text: PROB40
Forecast period: 0300 to 0900 UTC 20 November 2022
Forecast type: TEMPORARY: The following changes expected for less than half the time period
Winds: from the WNW (290 degrees) at 17 MPH (15 knots; 7.7 m/s)
gusting to 32 MPH (28 knots; 14.4 m/s)
Visibility: 4 miles (7 km)
Ceiling: unknown
Clouds: missing
Weather: SHRA  (rain showers)
Text: TEMPO 2003/2009 29015G28KT 7000 SHRA
Forecast period: 0900 to 1200 UTC 20 November 2022
Forecast type: TEMPORARY: The following changes expected for less than half the time period
Winds: from the WNW (290 degrees) at 17 MPH (15 knots; 7.7 m/s)
gusting to 32 MPH (28 knots; 14.4 m/s)
Visibility: 4 miles (7 km)
Ceiling: unknown
Clouds: missing
Weather: SHRA  (rain showers)